sensor_id;sensor_type;location;lat;lon;timestamp;P1;durP1;ratioP1;P2;durP2;ratioP2
33690;SDS011;20026;50.058;18.428;2023-11-22T00:00:06;69.80;;;29.95;;
33690;SDS011;20026;50.058;18.428;2023-11-22T00:02:33;65.88;;;29.15;;
33690;SDS011;20026;50.058;18.428;2023-11-22T00:04:59;59.92;;;27.05;;
33690;SDS011;20026;50.058;18.428;2023-11-22T00:07:25;55.85;;;27.48;;
33690;SDS011;20026;50.058;18.428;2023-11-22T00:09:54;65.70;;;28.92;;
33690;SDS011;20026;50.058;18.428;2023-11-22T00:12:21;101.90;;;37.00;;
33690;SDS011;20026;50.058;18.428;2023-11-22T00:14:48;80.97;;;31.85;;
33690;SDS011;20026;50.058;18.428;2023-11-22T00:17:14;64.95;;;27.48;;
33690;SDS011;20026;50.058;18.428;2023-11-22T00:19:42;78.28;;;31.85;;
33690;SDS011;20026;50.058;18.428;2023-11-22T00:22:09;52.58;;;25.55;;
33690;SDS011;20026;50.058;18.428;2023-11-22T00:24:39;59.58;;;26.83;;
33690;SDS011;20026;50.058;18.428;2023-11-22T00:27:05;53.38;;;26.33;;
33690;SDS011;20026;50.058;18.428;2023-11-22T00:29:31;60.15;;;26.80;;
33690;SDS011;20026;50.058;18.428;2023-11-22T00:31:57;45.53;;;23.27;;
33690;SDS011;20026;50.058;18.428;2023-11-22T00:34:26;38.35;;;21.13;;
33690;SDS011;20026;50.058;18.428;2023-11-22T00:36:52;45.38;;;23.80;;
33690;SDS011;20026;50.058;18.428;2023-11-22T00:39:18;47.72;;;25.20;;
33690;SDS011;20026;50.058;18.428;2023-11-22T00:41:45;50.25;;;24.63;;
33690;SDS011;20026;50.058;18.428;2023-11-22T00:44:11;41.97;;;21.63;;
33690;SDS011;20026;50.058;18.428;2023-11-22T00:46:37;54.17;;;25.73;;
33690;SDS011;20026;50.058;18.428;2023-11-22T00:49:03;43.53;;;22.23;;
33690;SDS011;20026;50.058;18.428;2023-11-22T00:51:30;32.47;;;18.63;;
33690;SDS011;20026;50.058;18.428;2023-11-22T00:53:56;42.05;;;22.25;;
33690;SDS011;20026;50.058;18.428;2023-11-22T00:56:22;52.75;;;24.77;;
33690;SDS011;20026;50.058;18.428;2023-11-22T00:58:48;50.50;;;23.30;;
33690;SDS011;20026;50.058;18.428;2023-11-22T01:01:15;46.40;;;22.10;;
33690;SDS011;20026;50.058;18.428;2023-11-22T01:03:41;45.60;;;22.80;;
33690;SDS011;20026;50.058;18.428;2023-11-22T01:06:07;50.63;;;24.15;;
33690;SDS011;20026;50.058;18.428;2023-11-22T01:08:34;48.75;;;23.42;;
33690;SDS011;20026;50.058;18.428;2023-11-22T01:11:01;49.28;;;23.67;;
33690;SDS011;20026;50.058;18.428;2023-11-22T01:13:28;55.55;;;23.30;;
33690;SDS011;20026;50.058;18.428;2023-11-22T01:15:54;52.88;;;24.15;;
33690;SDS011;20026;50.058;18.428;2023-11-22T01:18:20;64.07;;;26.63;;
33690;SDS011;20026;50.058;18.428;2023-11-22T01:20:47;63.40;;;25.48;;
33690;SDS011;20026;50.058;18.428;2023-11-22T01:23:14;63.83;;;25.25;;
33690;SDS011;20026;50.058;18.428;2023-11-22T01:25:40;77.05;;;29.88;;
33690;SDS011;20026;50.058;18.428;2023-11-22T01:28:06;57.85;;;25.60;;
33690;SDS011;20026;50.058;18.428;2023-11-22T01:30:32;32.35;;;18.20;;
33690;SDS011;20026;50.058;18.428;2023-11-22T01:32:58;47.20;;;21.45;;
33690;SDS011;20026;50.058;18.428;2023-11-22T01:35:24;32.70;;;18.60;;
33690;SDS011;20026;50.058;18.428;2023-11-22T01:37:51;45.42;;;21.50;;
33690;SDS011;20026;50.058;18.428;2023-11-22T01:40:17;40.60;;;21.98;;
33690;SDS011;20026;50.058;18.428;2023-11-22T01:42:44;48.50;;;23.40;;
33690;SDS011;20026;50.058;18.428;2023-11-22T01:45:12;39.70;;;21.17;;
33690;SDS011;20026;50.058;18.428;2023-11-22T01:47:38;39.47;;;20.52;;
33690;SDS011;20026;50.058;18.428;2023-11-22T01:50:06;54.63;;;23.92;;
33690;SDS011;20026;50.058;18.428;2023-11-22T01:52:33;45.20;;;23.55;;
33690;SDS011;20026;50.058;18.428;2023-11-22T01:55:00;57.13;;;25.95;;
33690;SDS011;20026;50.058;18.428;2023-11-22T01:57:26;61.45;;;29.58;;
33690;SDS011;20026;50.058;18.428;2023-11-22T01:59:52;63.38;;;29.00;;
33690;SDS011;20026;50.058;18.428;2023-11-22T02:02:18;56.28;;;26.23;;
33690;SDS011;20026;50.058;18.428;2023-11-22T02:04:45;64.95;;;30.42;;
33690;SDS011;20026;50.058;18.428;2023-11-22T02:07:11;65.63;;;30.67;;
33690;SDS011;20026;50.058;18.428;2023-11-22T02:09:37;50.45;;;27.45;;
33690;SDS011;20026;50.058;18.428;2023-11-22T02:12:03;50.50;;;26.15;;
33690;SDS011;20026;50.058;18.428;2023-11-22T02:14:29;62.40;;;28.83;;
33690;SDS011;20026;50.058;18.428;2023-11-22T02:16:55;59.47;;;30.55;;
33690;SDS011;20026;50.058;18.428;2023-11-22T02:19:21;53.42;;;27.50;;
33690;SDS011;20026;50.058;18.428;2023-11-22T02:21:47;62.83;;;31.88;;
33690;SDS011;20026;50.058;18.428;2023-11-22T02:24:13;65.25;;;32.15;;
33690;SDS011;20026;50.058;18.428;2023-11-22T02:26:45;65.75;;;32.95;;
33690;SDS011;20026;50.058;18.428;2023-11-22T02:29:11;60.35;;;31.17;;
33690;SDS011;20026;50.058;18.428;2023-11-22T02:31:39;76.88;;;37.00;;
33690;SDS011;20026;50.058;18.428;2023-11-22T02:34:05;59.42;;;31.00;;
33690;SDS011;20026;50.058;18.428;2023-11-22T02:36:31;68.18;;;33.00;;
33690;SDS011;20026;50.058;18.428;2023-11-22T02:38:57;63.42;;;32.63;;
33690;SDS011;20026;50.058;18.428;2023-11-22T02:41:23;67.93;;;34.83;;
33690;SDS011;20026;50.058;18.428;2023-11-22T02:43:50;64.13;;;33.88;;
33690;SDS011;20026;50.058;18.428;2023-11-22T02:46:16;75.07;;;35.42;;
33690;SDS011;20026;50.058;18.428;2023-11-22T02:48:42;74.43;;;35.60;;
33690;SDS011;20026;50.058;18.428;2023-11-22T02:51:10;63.83;;;31.80;;
33690;SDS011;20026;50.058;18.428;2023-11-22T02:53:36;63.15;;;31.45;;
33690;SDS011;20026;50.058;18.428;2023-11-22T02:56:02;69.75;;;34.58;;
33690;SDS011;20026;50.058;18.428;2023-11-22T02:58:29;56.10;;;29.90;;
33690;SDS011;20026;50.058;18.428;2023-11-22T03:00:56;66.13;;;33.67;;
33690;SDS011;20026;50.058;18.428;2023-11-22T03:03:23;61.33;;;31.13;;
33690;SDS011;20026;50.058;18.428;2023-11-22T03:05:49;68.90;;;34.90;;
33690;SDS011;20026;50.058;18.428;2023-11-22T03:08:16;70.97;;;35.63;;
33690;SDS011;20026;50.058;18.428;2023-11-22T03:10:43;71.97;;;37.55;;
33690;SDS011;20026;50.058;18.428;2023-11-22T03:13:09;63.88;;;33.38;;
33690;SDS011;20026;50.058;18.428;2023-11-22T03:15:35;67.45;;;34.30;;
33690;SDS011;20026;50.058;18.428;2023-11-22T03:18:01;70.10;;;36.25;;
33690;SDS011;20026;50.058;18.428;2023-11-22T03:20:28;71.15;;;36.75;;
33690;SDS011;20026;50.058;18.428;2023-11-22T03:22:55;67.32;;;34.08;;
33690;SDS011;20026;50.058;18.428;2023-11-22T03:25:22;65.47;;;34.00;;
33690;SDS011;20026;50.058;18.428;2023-11-22T03:27:48;69.78;;;34.42;;
33690;SDS011;20026;50.058;18.428;2023-11-22T03:30:14;71.85;;;35.65;;
33690;SDS011;20026;50.058;18.428;2023-11-22T03:32:40;71.32;;;35.50;;
33690;SDS011;20026;50.058;18.428;2023-11-22T03:35:07;71.45;;;32.90;;
33690;SDS011;20026;50.058;18.428;2023-11-22T03:37:33;65.45;;;32.08;;
33690;SDS011;20026;50.058;18.428;2023-11-22T03:39:59;66.60;;;34.53;;
33690;SDS011;20026;50.058;18.428;2023-11-22T03:42:26;68.32;;;33.60;;
33690;SDS011;20026;50.058;18.428;2023-11-22T03:44:52;70.75;;;34.28;;
33690;SDS011;20026;50.058;18.428;2023-11-22T03:47:18;74.20;;;35.50;;
33690;SDS011;20026;50.058;18.428;2023-11-22T03:49:45;70.60;;;35.03;;
33690;SDS011;20026;50.058;18.428;2023-11-22T03:52:11;71.95;;;35.50;;
33690;SDS011;20026;50.058;18.428;2023-11-22T03:54:37;67.05;;;34.13;;
33690;SDS011;20026;50.058;18.428;2023-11-22T03:57:04;69.18;;;32.95;;
33690;SDS011;20026;50.058;18.428;2023-11-22T03:59:30;68.25;;;34.30;;
33690;SDS011;20026;50.058;18.428;2023-11-22T04:01:56;71.28;;;34.60;;
33690;SDS011;20026;50.058;18.428;2023-11-22T04:04:22;70.95;;;35.63;;
33690;SDS011;20026;50.058;18.428;2023-11-22T04:06:49;77.60;;;36.28;;
33690;SDS011;20026;50.058;18.428;2023-11-22T04:09:15;74.53;;;35.65;;
33690;SDS011;20026;50.058;18.428;2023-11-22T04:11:45;68.60;;;35.30;;
33690;SDS011;20026;50.058;18.428;2023-11-22T04:14:14;71.45;;;34.40;;
33690;SDS011;20026;50.058;18.428;2023-11-22T04:16:40;75.95;;;36.03;;
33690;SDS011;20026;50.058;18.428;2023-11-22T04:19:06;72.20;;;35.70;;
33690;SDS011;20026;50.058;18.428;2023-11-22T04:21:32;73.30;;;35.63;;
33690;SDS011;20026;50.058;18.428;2023-11-22T04:23:58;70.88;;;35.33;;
33690;SDS011;20026;50.058;18.428;2023-11-22T04:26:24;70.97;;;34.03;;
33690;SDS011;20026;50.058;18.428;2023-11-22T04:28:51;70.50;;;35.00;;
33690;SDS011;20026;50.058;18.428;2023-11-22T04:31:17;71.47;;;34.15;;
33690;SDS011;20026;50.058;18.428;2023-11-22T04:33:43;66.25;;;33.97;;
33690;SDS011;20026;50.058;18.428;2023-11-22T04:36:09;70.75;;;35.47;;
33690;SDS011;20026;50.058;18.428;2023-11-22T04:38:37;66.25;;;33.13;;
33690;SDS011;20026;50.058;18.428;2023-11-22T04:41:03;70.18;;;33.65;;
33690;SDS011;20026;50.058;18.428;2023-11-22T04:43:29;66.43;;;34.65;;
33690;SDS011;20026;50.058;18.428;2023-11-22T04:45:55;68.55;;;33.35;;
33690;SDS011;20026;50.058;18.428;2023-11-22T04:48:21;67.72;;;35.00;;
33690;SDS011;20026;50.058;18.428;2023-11-22T04:50:47;57.42;;;31.13;;
33690;SDS011;20026;50.058;18.428;2023-11-22T04:53:13;61.03;;;31.35;;
33690;SDS011;20026;50.058;18.428;2023-11-22T04:55:39;61.03;;;32.03;;
33690;SDS011;20026;50.058;18.428;2023-11-22T04:58:06;56.33;;;31.38;;
33690;SDS011;20026;50.058;18.428;2023-11-22T05:00:32;57.65;;;31.85;;
33690;SDS011;20026;50.058;18.428;2023-11-22T05:02:58;64.70;;;34.08;;
33690;SDS011;20026;50.058;18.428;2023-11-22T05:05:24;64.22;;;32.28;;
33690;SDS011;20026;50.058;18.428;2023-11-22T05:07:50;62.97;;;30.25;;
33690;SDS011;20026;50.058;18.428;2023-11-22T05:10:16;60.97;;;30.67;;
33690;SDS011;20026;50.058;18.428;2023-11-22T05:12:42;62.90;;;31.90;;
33690;SDS011;20026;50.058;18.428;2023-11-22T05:15:09;59.45;;;30.15;;
33690;SDS011;20026;50.058;18.428;2023-11-22T05:17:36;61.58;;;30.77;;
33690;SDS011;20026;50.058;18.428;2023-11-22T05:20:03;65.80;;;32.42;;
33690;SDS011;20026;50.058;18.428;2023-11-22T05:22:30;61.78;;;30.48;;
33690;SDS011;20026;50.058;18.428;2023-11-22T05:24:56;54.30;;;28.75;;
33690;SDS011;20026;50.058;18.428;2023-11-22T05:27:22;53.33;;;27.88;;
33690;SDS011;20026;50.058;18.428;2023-11-22T05:29:48;56.65;;;29.30;;
33690;SDS011;20026;50.058;18.428;2023-11-22T05:32:14;56.03;;;29.60;;
33690;SDS011;20026;50.058;18.428;2023-11-22T05:34:42;52.10;;;26.80;;
33690;SDS011;20026;50.058;18.428;2023-11-22T05:37:08;49.72;;;26.85;;
33690;SDS011;20026;50.058;18.428;2023-11-22T05:39:34;49.92;;;27.75;;
33690;SDS011;20026;50.058;18.428;2023-11-22T05:42:01;53.35;;;28.88;;
33690;SDS011;20026;50.058;18.428;2023-11-22T05:44:28;51.10;;;27.40;;
33690;SDS011;20026;50.058;18.428;2023-11-22T05:46:54;50.15;;;27.33;;
33690;SDS011;20026;50.058;18.428;2023-11-22T05:49:20;44.63;;;25.10;;
33690;SDS011;20026;50.058;18.428;2023-11-22T05:51:46;50.83;;;28.23;;
33690;SDS011;20026;50.058;18.428;2023-11-22T05:54:12;45.78;;;26.08;;
33690;SDS011;20026;50.058;18.428;2023-11-22T05:56:41;48.90;;;27.73;;
33690;SDS011;20026;50.058;18.428;2023-11-22T05:59:07;47.10;;;26.65;;
33690;SDS011;20026;50.058;18.428;2023-11-22T06:01:33;48.85;;;28.00;;
33690;SDS011;20026;50.058;18.428;2023-11-22T06:03:59;42.15;;;23.55;;
33690;SDS011;20026;50.058;18.428;2023-11-22T06:06:25;42.42;;;24.60;;
33690;SDS011;20026;50.058;18.428;2023-11-22T06:08:51;44.03;;;25.17;;
33690;SDS011;20026;50.058;18.428;2023-11-22T06:11:18;36.88;;;23.00;;
33690;SDS011;20026;50.058;18.428;2023-11-22T06:13:45;38.75;;;23.80;;
33690;SDS011;20026;50.058;18.428;2023-11-22T06:16:12;42.78;;;24.20;;
33690;SDS011;20026;50.058;18.428;2023-11-22T06:18:38;40.88;;;24.73;;
33690;SDS011;20026;50.058;18.428;2023-11-22T06:21:08;48.17;;;26.20;;
33690;SDS011;20026;50.058;18.428;2023-11-22T06:23:34;49.67;;;27.42;;
33690;SDS011;20026;50.058;18.428;2023-11-22T06:26:00;43.55;;;24.58;;
33690;SDS011;20026;50.058;18.428;2023-11-22T06:28:26;39.72;;;23.02;;
33690;SDS011;20026;50.058;18.428;2023-11-22T06:30:52;47.05;;;25.95;;
33690;SDS011;20026;50.058;18.428;2023-11-22T06:33:18;47.08;;;26.05;;
33690;SDS011;20026;50.058;18.428;2023-11-22T06:35:44;45.67;;;25.17;;
33690;SDS011;20026;50.058;18.428;2023-11-22T06:38:10;47.35;;;25.70;;
33690;SDS011;20026;50.058;18.428;2023-11-22T06:40:37;62.35;;;30.58;;
33690;SDS011;20026;50.058;18.428;2023-11-22T06:43:03;52.53;;;27.13;;
33690;SDS011;20026;50.058;18.428;2023-11-22T06:45:31;37.20;;;19.25;;
33690;SDS011;20026;50.058;18.428;2023-11-22T06:47:57;46.92;;;26.17;;
33690;SDS011;20026;50.058;18.428;2023-11-22T06:50:24;56.85;;;29.38;;
33690;SDS011;20026;50.058;18.428;2023-11-22T06:52:50;55.13;;;29.88;;
33690;SDS011;20026;50.058;18.428;2023-11-22T06:55:17;47.88;;;25.23;;
33690;SDS011;20026;50.058;18.428;2023-11-22T06:57:43;53.63;;;26.95;;
33690;SDS011;20026;50.058;18.428;2023-11-22T07:00:10;55.15;;;28.98;;
33690;SDS011;20026;50.058;18.428;2023-11-22T07:02:37;48.60;;;28.15;;
33690;SDS011;20026;50.058;18.428;2023-11-22T07:05:03;45.25;;;25.13;;
33690;SDS011;20026;50.058;18.428;2023-11-22T07:07:35;48.70;;;26.13;;
33690;SDS011;20026;50.058;18.428;2023-11-22T07:10:02;45.67;;;24.83;;
33690;SDS011;20026;50.058;18.428;2023-11-22T07:12:30;44.55;;;25.50;;
33690;SDS011;20026;50.058;18.428;2023-11-22T07:14:56;52.67;;;27.15;;
33690;SDS011;20026;50.058;18.428;2023-11-22T07:17:22;41.35;;;24.08;;
33690;SDS011;20026;50.058;18.428;2023-11-22T07:19:48;38.17;;;23.02;;
33690;SDS011;20026;50.058;18.428;2023-11-22T07:22:16;39.60;;;22.02;;
33690;SDS011;20026;50.058;18.428;2023-11-22T07:24:44;38.63;;;21.27;;
33690;SDS011;20026;50.058;18.428;2023-11-22T07:27:14;36.30;;;20.33;;
33690;SDS011;20026;50.058;18.428;2023-11-22T07:29:40;37.17;;;21.65;;
33690;SDS011;20026;50.058;18.428;2023-11-22T07:32:07;30.15;;;19.35;;
33690;SDS011;20026;50.058;18.428;2023-11-22T07:34:33;35.20;;;18.63;;
33690;SDS011;20026;50.058;18.428;2023-11-22T07:37:00;32.85;;;19.30;;
33690;SDS011;20026;50.058;18.428;2023-11-22T07:39:26;33.25;;;18.73;;
33690;SDS011;20026;50.058;18.428;2023-11-22T07:41:52;33.75;;;19.83;;
33690;SDS011;20026;50.058;18.428;2023-11-22T07:44:20;34.58;;;19.15;;
33690;SDS011;20026;50.058;18.428;2023-11-22T07:46:46;34.83;;;20.02;;
33690;SDS011;20026;50.058;18.428;2023-11-22T07:49:12;36.25;;;22.02;;
33690;SDS011;20026;50.058;18.428;2023-11-22T07:51:42;40.35;;;20.92;;
33690;SDS011;20026;50.058;18.428;2023-11-22T07:54:10;40.40;;;21.53;;
33690;SDS011;20026;50.058;18.428;2023-11-22T07:56:40;44.58;;;23.73;;
33690;SDS011;20026;50.058;18.428;2023-11-22T07:59:08;41.55;;;23.00;;
33690;SDS011;20026;50.058;18.428;2023-11-22T08:01:35;42.50;;;23.50;;
33690;SDS011;20026;50.058;18.428;2023-11-22T08:04:01;42.00;;;23.42;;
33690;SDS011;20026;50.058;18.428;2023-11-22T08:06:27;43.08;;;24.52;;
33690;SDS011;20026;50.058;18.428;2023-11-22T08:08:53;36.40;;;21.05;;
33690;SDS011;20026;50.058;18.428;2023-11-22T08:11:19;40.88;;;25.25;;
33690;SDS011;20026;50.058;18.428;2023-11-22T08:13:46;41.75;;;24.63;;
33690;SDS011;20026;50.058;18.428;2023-11-22T08:16:12;48.33;;;28.08;;
33690;SDS011;20026;50.058;18.428;2023-11-22T08:18:39;49.25;;;28.58;;
33690;SDS011;20026;50.058;18.428;2023-11-22T08:21:07;61.17;;;34.10;;
33690;SDS011;20026;50.058;18.428;2023-11-22T08:23:33;52.05;;;27.52;;
33690;SDS011;20026;50.058;18.428;2023-11-22T08:25:59;51.15;;;25.33;;
33690;SDS011;20026;50.058;18.428;2023-11-22T08:28:26;47.78;;;25.35;;
33690;SDS011;20026;50.058;18.428;2023-11-22T08:30:52;50.45;;;28.75;;
33690;SDS011;20026;50.058;18.428;2023-11-22T08:33:18;55.72;;;27.73;;
33690;SDS011;20026;50.058;18.428;2023-11-22T08:35:44;45.63;;;26.42;;
33690;SDS011;20026;50.058;18.428;2023-11-22T08:38:16;54.22;;;27.90;;
33690;SDS011;20026;50.058;18.428;2023-11-22T08:40:42;48.35;;;24.83;;
33690;SDS011;20026;50.058;18.428;2023-11-22T08:43:08;109.70;;;46.17;;
33690;SDS011;20026;50.058;18.428;2023-11-22T08:45:34;61.13;;;30.20;;
33690;SDS011;20026;50.058;18.428;2023-11-22T08:48:00;41.70;;;22.38;;
33690;SDS011;20026;50.058;18.428;2023-11-22T08:50:26;46.45;;;24.98;;
33690;SDS011;20026;50.058;18.428;2023-11-22T08:52:54;45.78;;;23.55;;
33690;SDS011;20026;50.058;18.428;2023-11-22T08:55:21;48.47;;;25.95;;
33690;SDS011;20026;50.058;18.428;2023-11-22T08:57:49;48.65;;;23.90;;
33690;SDS011;20026;50.058;18.428;2023-11-22T09:00:18;46.30;;;24.20;;
33690;SDS011;20026;50.058;18.428;2023-11-22T09:02:50;70.95;;;31.90;;
33690;SDS011;20026;50.058;18.428;2023-11-22T09:05:16;49.97;;;27.15;;
33690;SDS011;20026;50.058;18.428;2023-11-22T09:07:44;43.72;;;26.88;;
33690;SDS011;20026;50.058;18.428;2023-11-22T09:10:11;41.80;;;24.80;;
33690;SDS011;20026;50.058;18.428;2023-11-22T09:12:39;47.38;;;25.33;;
33690;SDS011;20026;50.058;18.428;2023-11-22T09:15:09;48.95;;;25.15;;
33690;SDS011;20026;50.058;18.428;2023-11-22T09:17:38;43.60;;;24.10;;
33690;SDS011;20026;50.058;18.428;2023-11-22T09:20:17;50.95;;;25.48;;
33690;SDS011;20026;50.058;18.428;2023-11-22T09:22:47;45.13;;;22.23;;
33690;SDS011;20026;50.058;18.428;2023-11-22T09:25:17;44.92;;;24.45;;
33690;SDS011;20026;50.058;18.428;2023-11-22T09:27:48;46.22;;;24.38;;
33690;SDS011;20026;50.058;18.428;2023-11-22T09:30:16;48.72;;;24.27;;
33690;SDS011;20026;50.058;18.428;2023-11-22T09:32:47;41.67;;;22.13;;
33690;SDS011;20026;50.058;18.428;2023-11-22T09:35:14;42.85;;;24.40;;
33690;SDS011;20026;50.058;18.428;2023-11-22T09:37:40;49.35;;;26.63;;
33690;SDS011;20026;50.058;18.428;2023-11-22T09:40:07;50.53;;;27.83;;
33690;SDS011;20026;50.058;18.428;2023-11-22T09:42:34;45.08;;;24.80;;
33690;SDS011;20026;50.058;18.428;2023-11-22T09:45:00;47.67;;;23.92;;
33690;SDS011;20026;50.058;18.428;2023-11-22T09:47:27;38.42;;;21.42;;
33690;SDS011;20026;50.058;18.428;2023-11-22T09:49:54;34.38;;;19.55;;
33690;SDS011;20026;50.058;18.428;2023-11-22T09:52:22;38.00;;;21.63;;
33690;SDS011;20026;50.058;18.428;2023-11-22T09:54:49;38.72;;;23.35;;
33690;SDS011;20026;50.058;18.428;2023-11-22T09:57:16;40.90;;;20.90;;
33690;SDS011;20026;50.058;18.428;2023-11-22T09:59:43;39.10;;;20.92;;
33690;SDS011;20026;50.058;18.428;2023-11-22T10:02:10;44.42;;;22.58;;
33690;SDS011;20026;50.058;18.428;2023-11-22T10:04:36;41.85;;;21.30;;
33690;SDS011;20026;50.058;18.428;2023-11-22T10:07:03;36.08;;;19.33;;
33690;SDS011;20026;50.058;18.428;2023-11-22T10:09:29;28.27;;;16.25;;
33690;SDS011;20026;50.058;18.428;2023-11-22T10:12:01;31.02;;;18.30;;
33690;SDS011;20026;50.058;18.428;2023-11-22T10:14:27;24.05;;;16.05;;
33690;SDS011;20026;50.058;18.428;2023-11-22T10:16:59;27.42;;;16.48;;
33690;SDS011;20026;50.058;18.428;2023-11-22T10:19:26;34.33;;;17.67;;
33690;SDS011;20026;50.058;18.428;2023-11-22T10:22:03;30.23;;;16.65;;
33690;SDS011;20026;50.058;18.428;2023-11-22T10:24:30;27.85;;;15.98;;
33690;SDS011;20026;50.058;18.428;2023-11-22T10:26:58;33.78;;;19.33;;
33690;SDS011;20026;50.058;18.428;2023-11-22T10:29:25;33.97;;;19.00;;
33690;SDS011;20026;50.058;18.428;2023-11-22T10:31:52;31.92;;;19.38;;
33690;SDS011;20026;50.058;18.428;2023-11-22T10:34:21;41.25;;;22.73;;
33690;SDS011;20026;50.058;18.428;2023-11-22T10:36:48;32.50;;;16.52;;
33690;SDS011;20026;50.058;18.428;2023-11-22T10:39:21;36.90;;;20.42;;
33690;SDS011;20026;50.058;18.428;2023-11-22T10:41:48;31.98;;;18.67;;
33690;SDS011;20026;50.058;18.428;2023-11-22T10:44:16;38.47;;;19.05;;
33690;SDS011;20026;50.058;18.428;2023-11-22T10:46:44;33.10;;;18.75;;
33690;SDS011;20026;50.058;18.428;2023-11-22T10:49:10;33.13;;;17.75;;
33690;SDS011;20026;50.058;18.428;2023-11-22T10:51:37;29.10;;;15.30;;
33690;SDS011;20026;50.058;18.428;2023-11-22T10:54:06;34.55;;;17.13;;
33690;SDS011;20026;50.058;18.428;2023-11-22T10:56:36;34.17;;;18.00;;
33690;SDS011;20026;50.058;18.428;2023-11-22T10:59:02;37.88;;;18.67;;
33690;SDS011;20026;50.058;18.428;2023-11-22T11:01:32;52.42;;;22.75;;
33690;SDS011;20026;50.058;18.428;2023-11-22T11:04:02;42.58;;;19.35;;
33690;SDS011;20026;50.058;18.428;2023-11-22T11:06:32;88.75;;;34.47;;
33690;SDS011;20026;50.058;18.428;2023-11-22T11:08:59;145.55;;;52.60;;
33690;SDS011;20026;50.058;18.428;2023-11-22T11:11:25;61.50;;;27.98;;
33690;SDS011;20026;50.058;18.428;2023-11-22T11:13:53;73.50;;;29.02;;
33690;SDS011;20026;50.058;18.428;2023-11-22T11:16:20;64.82;;;28.52;;
33690;SDS011;20026;50.058;18.428;2023-11-22T11:18:46;45.13;;;21.45;;
33690;SDS011;20026;50.058;18.428;2023-11-22T11:21:13;48.58;;;23.45;;
33690;SDS011;20026;50.058;18.428;2023-11-22T11:23:40;50.70;;;24.10;;
33690;SDS011;20026;50.058;18.428;2023-11-22T11:26:18;77.63;;;32.58;;
33690;SDS011;20026;50.058;18.428;2023-11-22T11:28:48;56.60;;;28.38;;
33690;SDS011;20026;50.058;18.428;2023-11-22T11:31:14;79.82;;;33.40;;
33690;SDS011;20026;50.058;18.428;2023-11-22T11:36:26;65.03;;;30.60;;
33690;SDS011;20026;50.058;18.428;2023-11-22T11:38:54;39.33;;;22.60;;
33690;SDS011;20026;50.058;18.428;2023-11-22T11:41:27;27.27;;;15.87;;
33690;SDS011;20026;50.058;18.428;2023-11-22T11:43:55;65.47;;;30.40;;
33690;SDS011;20026;50.058;18.428;2023-11-22T11:46:22;39.35;;;21.90;;
33690;SDS011;20026;50.058;18.428;2023-11-22T11:48:49;42.47;;;24.83;;
33690;SDS011;20026;50.058;18.428;2023-11-22T11:51:16;52.83;;;28.83;;
33690;SDS011;20026;50.058;18.428;2023-11-22T11:53:42;50.50;;;28.65;;
33690;SDS011;20026;50.058;18.428;2023-11-22T11:56:09;37.95;;;19.65;;
33690;SDS011;20026;50.058;18.428;2023-11-22T11:58:35;27.08;;;15.70;;
33690;SDS011;20026;50.058;18.428;2023-11-22T12:01:03;24.92;;;15.80;;
33690;SDS011;20026;50.058;18.428;2023-11-22T12:03:29;34.05;;;18.63;;
33690;SDS011;20026;50.058;18.428;2023-11-22T12:05:55;35.47;;;18.15;;
33690;SDS011;20026;50.058;18.428;2023-11-22T12:08:21;26.02;;;16.25;;
33690;SDS011;20026;50.058;18.428;2023-11-22T12:10:47;32.97;;;19.70;;
33690;SDS011;20026;50.058;18.428;2023-11-22T12:13:20;32.10;;;18.25;;
33690;SDS011;20026;50.058;18.428;2023-11-22T12:15:46;40.50;;;22.52;;
33690;SDS011;20026;50.058;18.428;2023-11-22T12:18:13;26.10;;;17.25;;
33690;SDS011;20026;50.058;18.428;2023-11-22T12:20:39;30.15;;;17.85;;
33690;SDS011;20026;50.058;18.428;2023-11-22T12:23:05;31.73;;;17.75;;
33690;SDS011;20026;50.058;18.428;2023-11-22T12:25:34;35.35;;;17.30;;
33690;SDS011;20026;50.058;18.428;2023-11-22T12:28:00;35.70;;;16.95;;
33690;SDS011;20026;50.058;18.428;2023-11-22T12:30:29;29.08;;;16.25;;
33690;SDS011;20026;50.058;18.428;2023-11-22T12:32:57;25.60;;;14.27;;
33690;SDS011;20026;50.058;18.428;2023-11-22T12:35:23;35.78;;;18.65;;
33690;SDS011;20026;50.058;18.428;2023-11-22T12:37:49;31.70;;;16.92;;
33690;SDS011;20026;50.058;18.428;2023-11-22T12:40:15;28.25;;;15.18;;
33690;SDS011;20026;50.058;18.428;2023-11-22T12:42:49;33.95;;;18.30;;
33690;SDS011;20026;50.058;18.428;2023-11-22T12:45:22;26.45;;;15.15;;
33690;SDS011;20026;50.058;18.428;2023-11-22T12:47:49;34.58;;;16.52;;
33690;SDS011;20026;50.058;18.428;2023-11-22T12:50:35;29.10;;;15.00;;
33690;SDS011;20026;50.058;18.428;2023-11-22T12:53:07;32.63;;;16.05;;
33690;SDS011;20026;50.058;18.428;2023-11-22T12:55:34;29.85;;;16.17;;
33690;SDS011;20026;50.058;18.428;2023-11-22T12:58:00;28.42;;;15.57;;
33690;SDS011;20026;50.058;18.428;2023-11-22T13:00:28;31.88;;;15.90;;
33690;SDS011;20026;50.058;18.428;2023-11-22T13:02:58;36.67;;;18.30;;
33690;SDS011;20026;50.058;18.428;2023-11-22T13:05:24;28.13;;;15.35;;
33690;SDS011;20026;50.058;18.428;2023-11-22T13:07:50;30.27;;;17.38;;
33690;SDS011;20026;50.058;18.428;2023-11-22T13:10:16;38.83;;;19.63;;
33690;SDS011;20026;50.058;18.428;2023-11-22T13:12:43;33.75;;;17.60;;
33690;SDS011;20026;50.058;18.428;2023-11-22T13:15:10;48.13;;;22.05;;
33690;SDS011;20026;50.058;18.428;2023-11-22T13:17:37;39.30;;;20.75;;
33690;SDS011;20026;50.058;18.428;2023-11-22T13:20:05;23.35;;;14.93;;
33690;SDS011;20026;50.058;18.428;2023-11-22T13:22:38;28.80;;;15.88;;
33690;SDS011;20026;50.058;18.428;2023-11-22T13:25:04;32.58;;;16.83;;
33690;SDS011;20026;50.058;18.428;2023-11-22T13:27:31;39.72;;;20.27;;
33690;SDS011;20026;50.058;18.428;2023-11-22T13:29:57;38.70;;;21.17;;
33690;SDS011;20026;50.058;18.428;2023-11-22T13:32:23;37.83;;;19.55;;
33690;SDS011;20026;50.058;18.428;2023-11-22T13:34:51;33.13;;;19.20;;
33690;SDS011;20026;50.058;18.428;2023-11-22T13:37:23;36.42;;;19.08;;
33690;SDS011;20026;50.058;18.428;2023-11-22T13:39:49;33.53;;;16.30;;
33690;SDS011;20026;50.058;18.428;2023-11-22T13:42:15;35.80;;;18.52;;
33690;SDS011;20026;50.058;18.428;2023-11-22T13:44:41;51.58;;;26.08;;
33690;SDS011;20026;50.058;18.428;2023-11-22T13:47:09;47.92;;;22.88;;
33690;SDS011;20026;50.058;18.428;2023-11-22T13:49:35;53.00;;;20.20;;
33690;SDS011;20026;50.058;18.428;2023-11-22T13:52:02;55.00;;;23.20;;
33690;SDS011;20026;50.058;18.428;2023-11-22T13:54:28;42.03;;;19.83;;
33690;SDS011;20026;50.058;18.428;2023-11-22T13:56:56;57.78;;;24.27;;
33690;SDS011;20026;50.058;18.428;2023-11-22T13:59:23;60.53;;;26.08;;
33690;SDS011;20026;50.058;18.428;2023-11-22T14:01:49;42.72;;;20.95;;
33690;SDS011;20026;50.058;18.428;2023-11-22T14:04:15;39.42;;;21.27;;
33690;SDS011;20026;50.058;18.428;2023-11-22T14:06:41;43.40;;;23.98;;
33690;SDS011;20026;50.058;18.428;2023-11-22T14:09:07;47.85;;;22.55;;